Peterborough, United Kingdom
Current Conditions -  °F | °C
As of 2:50 PM on Friday 19 Dec 2014 (Local Time) from EGXT Reporting Station
Clear Clear  
Wind Chill:   Ceiling: Unl
Heat Index:   Visibility: 6mi
Dew Point:   Wind: 23mph
Humidity: 71%   Direction: 260°W
Pressure: 29.94"   Gusts: NA
Location:  52.57°N, 0.24°W
Report Text: EGXT 191450Z AUTO 26020KT 9999 NCD 07/02 Q1014
Loading
Personal Weather Stations






























Interactive Weather Map New forecast layout! Learn more

10-Day Weather Forecast

Advertisements
Track Severe Weather on mobile